Time;durP1;ratioP1;P1;durP2;ratioP2;P2;SDS_P1;SDS_P2;PMS_P1;PMS_P2;Temp;Humidity;BMP_temperature;BMP_pressure;BME280_temperature;BME280_humidity;BME280_pressure;Samples;Min_cycle;Max_cycle;Signal;HPM_P1;HPM_P2
2022/08/09 00:02:04;;;;;;;15.82;9.30;;;;;;;18.90;64.67;102623.94;5039652;28;20452;-62
2022/08/09 00:04:30;;;;;;;13.30;9.10;;;;;;;18.89;63.85;102619.50;5036959;28;20431;-62
2022/08/09 00:06:55;;;;;;;14.32;9.10;;;;;;;18.89;64.32;102616.00;5050065;28;20495;-61
2022/08/09 00:09:21;;;;;;;13.32;9.32;;;;;;;18.87;64.18;102613.31;5047811;28;20442;-61
2022/08/09 00:11:46;;;;;;;13.82;9.02;;;;;;;18.84;64.39;102607.97;5046818;28;20039;-61
2022/08/09 00:14:12;;;;;;;13.45;9.15;;;;;;;18.79;64.53;102620.19;5048863;28;20036;-60
2022/08/09 00:16:37;;;;;;;14.20;9.05;;;;;;;18.80;64.78;102615.78;5041141;28;20025;-61
2022/08/09 00:19:04;;;;;;;13.82;8.80;;;;;;;18.80;64.46;102615.78;5046979;28;20025;-61
2022/08/09 00:21:29;;;;;;;16.25;9.55;;;;;;;18.76;64.33;102605.16;5043199;28;20021;-61
2022/08/09 00:23:54;;;;;;;13.13;8.95;;;;;;;18.74;64.55;102612.19;5041709;28;20082;-61
2022/08/09 00:26:21;;;;;;;14.07;9.02;;;;;;;18.72;64.83;102613.00;5043343;28;20488;-61
2022/08/09 00:28:49;;;;;;;14.25;9.48;;;;;;;18.70;64.33;102620.03;5046218;28;20056;-62
2022/08/09 00:31:14;;;;;;;14.30;9.27;;;;;;;18.65;64.56;102611.09;5044970;28;20032;-61
2022/08/09 00:33:41;;;;;;;14.10;9.25;;;;;;;18.62;64.78;102614.56;5041276;28;20082;-61
2022/08/09 00:36:07;;;;;;;13.50;8.93;;;;;;;18.59;64.92;102612.75;5047053;28;20105;-62
2022/08/09 00:38:32;;;;;;;13.60;9.10;;;;;;;18.56;64.91;102610.06;5032465;28;20432;-62
2022/08/09 00:40:57;;;;;;;14.13;9.65;;;;;;;18.56;64.95;102609.19;5045049;28;20083;-62
2022/08/09 00:43:23;;;;;;;15.32;9.43;;;;;;;18.52;65.26;102607.34;5047988;28;20422;-62
2022/08/09 00:45:48;;;;;;;15.73;9.65;;;;;;;18.50;64.87;102607.31;5045829;28;20492;-62
2022/08/09 00:48:14;;;;;;;13.95;9.23;;;;;;;18.47;65.50;102604.63;5046942;28;20037;-62
2022/08/09 00:50:39;;;;;;;16.88;9.48;;;;;;;18.45;65.81;102613.38;5048271;28;20131;-62
2022/08/09 00:53:06;;;;;;;16.40;10.00;;;;;;;18.43;65.26;102610.69;5049262;28;20045;-62
2022/08/09 00:55:31;;;;;;;14.13;9.85;;;;;;;18.40;65.13;102611.53;5047469;28;20032;-61
2022/08/09 00:57:56;;;;;;;17.63;10.27;;;;;;;18.37;65.29;102608.84;5047938;28;20029;-61
2022/08/09 01:00:22;;;;;;;16.52;10.20;;;;;;;18.38;64.96;102609.75;5048464;28;20219;-61
2022/08/09 01:03:11;;;;;;;14.52;9.68;;;;;;;18.37;64.44;102614.09;5045288;28;20092;-61
2022/08/09 01:05:45;;;;;;;14.25;9.48;;;;;;;18.37;64.67;102607.94;5039338;28;20186;-61
2022/08/09 01:08:19;;;;;;;15.50;9.88;;;;;;;18.32;65.32;102606.97;5035970;28;20034;-61
2022/08/09 01:10:55;;;;;;;16.15;10.52;;;;;;;18.28;65.16;102610.38;5045981;28;20032;-61
2022/08/09 01:13:45;;;;;;;17.27;9.00;;;;;;;18.28;64.85;102611.31;5047018;28;20055;-60
2022/08/09 01:16:12;;;;;;;18.02;11.05;;;;;;;18.22;65.17;102622.63;5039231;28;20026;-60
2022/08/09 01:18:44;;;;;;;16.83;9.57;;;;;;;18.21;65.22;102612.03;5044379;28;20090;-60
2022/08/09 01:21:44;;;;;;;16.08;9.43;;;;;;;18.19;65.03;102619.91;5049928;28;20032;-61
2022/08/09 01:24:36;;;;;;;16.10;9.38;;;;;;;18.16;64.77;102622.50;4978938;28;20059;-61
2022/08/09 01:27:06;;;;;;;18.35;9.75;;;;;;;18.12;64.66;102623.28;5042456;28;20033;-61
2022/08/09 01:29:59;;;;;;;16.05;9.75;;;;;;;18.07;64.53;102623.19;5047184;28;20021;-61
2022/08/09 01:32:47;;;;;;;17.90;9.60;;;;;;;18.07;64.46;102622.28;5039879;28;20476;-61
2022/08/09 01:35:19;;;;;;;16.77;9.07;;;;;;;18.02;64.88;102618.69;5046761;28;20025;-61
2022/08/09 01:37:46;;;;;;;12.65;9.00;;;;;;;17.96;65.54;102607.97;5045663;28;20100;-61
2022/08/09 01:40:15;;;;;;;16.27;9.05;;;;;;;17.93;66.12;102610.56;5047230;28;20060;-60
2022/08/09 01:42:41;;;;;;;14.45;9.23;;;;;;;17.90;66.20;102612.28;5046862;28;20029;-60
2022/08/09 01:45:08;;;;;;;14.13;8.95;;;;;;;17.84;65.70;102609.50;5046969;28;21234;-61
2022/08/09 01:47:34;;;;;;;15.90;9.35;;;;;;;17.80;65.55;102612.91;5047405;28;20036;-61
2022/08/09 01:50:03;;;;;;;15.45;9.20;;;;;;;17.77;65.59;102618.13;5039196;28;20083;-61
2022/08/09 01:52:29;;;;;;;14.25;9.77;;;;;;;17.72;65.46;102609.19;5032286;28;20075;-61
2022/08/09 01:54:57;;;;;;;15.70;8.98;;;;;;;17.70;64.70;102610.94;5039704;28;20029;-61
2022/08/09 01:57:36;;;;;;;14.45;9.80;;;;;;;17.62;65.21;102609.84;5047164;28;20028;-61
2022/08/09 02:00:05;;;;;;;16.13;9.35;;;;;;;17.60;65.15;102620.38;5045919;28;20404;-61
2022/08/09 02:02:34;;;;;;;15.65;9.85;;;;;;;17.55;65.22;102624.63;5044227;28;20024;-61
2022/08/09 02:05:03;;;;;;;14.45;9.23;;;;;;;17.52;64.69;102619.28;5046039;28;20024;-61
2022/08/09 02:07:29;;;;;;;15.88;9.45;;;;;;;17.49;65.40;102627.13;5039328;28;20108;-60
2022/08/09 02:10:01;;;;;;;16.35;9.38;;;;;;;17.43;65.76;102614.69;5044576;28;20079;-60
2022/08/09 02:12:27;;;;;;;14.43;8.80;;;;;;;17.43;65.55;102621.72;5049116;28;20025;-61
2022/08/09 02:14:55;;;;;;;16.42;9.40;;;;;;;17.40;66.03;102621.66;5053424;28;20028;-61
2022/08/09 02:17:23;;;;;;;17.92;9.10;;;;;;;17.37;66.26;102628.59;5047168;28;20028;-61
2022/08/09 02:19:49;;;;;;;15.30;9.75;;;;;;;17.38;65.79;102629.53;5051187;28;20104;-61
2022/08/09 02:22:41;;;;;;;15.93;9.18;;;;;;;17.37;66.29;102627.72;5052213;28;20037;-61
2022/08/09 02:25:11;;;;;;;13.75;8.55;;;;;;;17.34;66.64;102623.28;5050113;28;20028;-62
2022/08/09 02:27:40;;;;;;;16.35;9.35;;;;;;;17.31;67.36;102622.31;5049089;28;20029;-61
2022/08/09 02:30:07;;;;;;;16.35;9.38;;;;;;;17.31;66.86;102623.19;5052011;28;20025;-61
2022/08/09 02:32:40;;;;;;;15.82;9.23;;;;;;;17.26;66.92;102614.28;5052363;28;20183;-61
2022/08/09 02:35:12;;;;;;;19.55;10.02;;;;;;;17.24;67.09;102621.28;5050061;28;20245;-61
2022/08/09 02:37:41;;;;;;;15.15;8.85;;;;;;;17.24;66.65;102609.84;5049501;28;20118;-61
2022/08/09 02:40:10;;;;;;;17.27;9.15;;;;;;;17.23;67.44;102616.84;5010088;28;20421;-61
2022/08/09 02:42:38;;;;;;;16.92;9.43;;;;;;;17.20;67.53;102609.75;5033523;28;20108;-61
2022/08/09 02:45:09;;;;;;;18.17;9.70;;;;;;;17.16;67.56;102605.28;5023663;28;20414;-61
2022/08/09 02:47:36;;;;;;;16.10;9.48;;;;;;;17.14;67.99;102609.59;5028703;28;20071;-60
2022/08/09 02:50:08;;;;;;;17.77;9.50;;;;;;;17.11;67.68;102609.53;5028869;28;20116;-62
2022/08/09 02:52:39;;;;;;;19.67;10.35;;;;;;;17.09;67.66;102608.63;5025260;28;20059;-62
2022/08/09 02:55:07;;;;;;;20.08;9.27;;;;;;;17.07;68.32;102609.44;5029253;28;20028;-62
2022/08/09 02:57:34;;;;;;;18.17;9.38;;;;;;;17.05;68.32;102606.75;5031610;28;20030;-62
2022/08/09 03:00:00;;;;;;;15.95;9.15;;;;;;;17.02;67.93;102602.28;5026760;28;20481;-62
2022/08/09 03:02:27;;;;;;;20.65;9.77;;;;;;;17.01;68.26;102605.78;5023456;28;20029;-62
2022/08/09 03:04:54;;;;;;;17.42;10.27;;;;;;;16.96;68.89;102615.31;5030893;28;20577;-62
2022/08/09 03:07:21;;;;;;;20.27;10.18;;;;;;;16.95;69.19;102613.53;5031043;28;20109;-62
2022/08/09 03:09:49;;;;;;;19.00;9.73;;;;;;;16.90;69.24;102609.91;5030321;28;20033;-61
2022/08/09 03:12:16;;;;;;;15.40;10.07;;;;;;;16.94;68.18;102613.50;5030066;28;20045;-62
2022/08/09 03:14:42;;;;;;;17.33;9.77;;;;;;;16.88;69.04;102606.31;5020366;28;20029;-61
2022/08/09 03:17:09;;;;;;;16.65;9.52;;;;;;;16.89;68.83;102608.09;5031230;28;20079;-61
2022/08/09 03:19:37;;;;;;;20.15;10.85;;;;;;;16.88;68.44;102613.34;5030681;28;20541;-59
2022/08/09 03:22:04;;;;;;;20.33;10.07;;;;;;;16.88;68.63;102608.06;5032482;28;20112;-61
2022/08/09 03:24:30;;;;;;;15.25;9.77;;;;;;;16.85;68.32;102607.09;5029146;28;20053;-61
2022/08/09 03:26:56;;;;;;;16.95;9.80;;;;;;;16.85;68.50;102607.09;5029996;28;20146;-60
2022/08/09 03:29:22;;;;;;;18.30;9.70;;;;;;;16.85;68.66;102606.22;5024928;28;20087;-61
2022/08/09 03:31:48;;;;;;;17.17;10.10;;;;;;;16.82;68.64;102607.00;5031774;28;20032;-61
2022/08/09 03:34:14;;;;;;;16.75;9.45;;;;;;;16.82;68.63;102607.00;5032154;28;20037;-61
2022/08/09 03:36:39;;;;;;;19.15;10.30;;;;;;;16.76;68.80;102611.25;5030905;28;20056;-61
2022/08/09 03:39:05;;;;;;;19.35;10.60;;;;;;;16.76;68.27;102612.13;5028372;28;20055;-61
2022/08/09 03:41:30;;;;;;;17.80;9.48;;;;;;;16.73;68.71;102614.69;5043143;28;20051;-59
2022/08/09 03:43:55;;;;;;;19.10;9.70;;;;;;;16.73;68.88;102616.41;5041992;28;20029;-60
2022/08/09 03:46:20;;;;;;;15.80;9.13;;;;;;;16.72;67.92;102610.25;5044665;28;20104;-61
2022/08/09 03:48:53;;;;;;;20.00;9.82;;;;;;;16.68;68.33;102613.66;5049323;28;20029;-61
2022/08/09 03:51:20;;;;;;;19.23;9.38;;;;;;;16.62;67.83;102621.41;5046009;28;20021;-61
2022/08/09 03:53:46;;;;;;;18.30;9.77;;;;;;;16.55;69.32;102614.19;5043741;28;20078;-61
2022/08/09 03:56:12;;;;;;;21.00;9.93;;;;;;;16.52;69.19;102618.53;5046970;28;20029;-62
2022/08/09 03:58:37;;;;;;;17.67;9.05;;;;;;;16.51;68.64;102615.81;5050505;28;20503;-62
2022/08/09 04:01:03;;;;;;;17.85;9.82;;;;;;;16.50;68.43;102614.06;5047119;28;20033;-62
2022/08/09 04:03:29;;;;;;;17.90;9.77;;;;;;;16.47;68.60;102625.38;5050103;28;20020;-62
2022/08/09 04:05:54;;;;;;;17.90;8.88;;;;;;;16.47;68.74;102624.50;5046372;28;20024;-61
2022/08/09 04:08:20;;;;;;;16.80;9.68;;;;;;;16.39;69.59;102611.13;5046535;28;20029;-61
2022/08/09 04:10:45;;;;;;;15.55;8.93;;;;;;;16.37;69.13;102618.09;5049960;28;20029;-61
2022/08/09 04:13:11;;;;;;;18.88;9.23;;;;;;;16.34;69.27;102621.50;5043076;28;20052;-61
2022/08/09 04:15:37;;;;;;;18.05;9.82;;;;;;;16.33;69.79;102610.94;5048846;28;20052;-61
2022/08/09 04:18:04;;;;;;;22.30;9.73;;;;;;;16.30;69.41;102624.03;5050128;28;20112;-60
2022/08/09 04:20:30;;;;;;;19.20;9.88;;;;;;;16.29;69.51;102615.25;5043698;28;20071;-61
2022/08/09 04:22:55;;;;;;;17.30;9.25;;;;;;;16.28;69.32;102616.09;5051469;28;20052;-61
2022/08/09 04:25:20;;;;;;;18.25;9.60;;;;;;;16.28;69.83;102623.06;5044416;28;20071;-61
2022/08/09 04:27:46;;;;;;;18.38;9.88;;;;;;;16.25;70.29;102625.63;5044643;28;20040;-61
2022/08/09 04:30:14;;;;;;;16.85;9.05;;;;;;;16.22;69.30;102629.06;5046379;28;20022;-61
2022/08/09 04:32:40;;;;;;;17.92;10.18;;;;;;;16.21;69.22;102636.91;5047180;28;20066;-61
2022/08/09 04:35:07;;;;;;;18.30;9.40;;;;;;;16.19;69.49;102634.22;5030015;28;20033;-61
2022/08/09 04:37:33;;;;;;;16.42;9.32;;;;;;;16.18;69.34;102632.47;5046273;28;20055;-61
2022/08/09 04:39:58;;;;;;;19.00;10.23;;;;;;;16.13;69.58;102637.59;5049438;28;20064;-61
2022/08/09 04:42:28;;;;;;;20.20;9.93;;;;;;;16.13;69.87;102634.03;5050163;28;20385;-61
2022/08/09 04:44:53;;;;;;;;;;;;;;;16.22;67.99;102638.69;5048102;28;20020;-61
2022/08/09 04:47:19;;;;;;;16.83;8.82;;;;;;;16.15;69.82;102640.25;5047162;28;19924;-61
2022/08/09 04:49:44;;;;;;;18.45;9.95;;;;;;;16.11;70.34;102644.53;5046875;28;20013;-61
2022/08/09 04:52:09;;;;;;;22.42;10.25;;;;;;;16.10;70.75;102648.00;5049489;28;20112;-61
2022/08/09 04:54:35;;;;;;;19.15;9.77;;;;;;;16.09;70.79;102643.59;5049932;28;20044;-61
2022/08/09 04:57:00;;;;;;;20.27;10.90;;;;;;;16.07;70.79;102647.03;5046807;28;20033;-61
2022/08/09 04:59:25;;;;;;;20.52;10.75;;;;;;;16.05;70.59;102640.81;5047502;28;20036;-61
2022/08/09 05:01:51;;;;;;;22.70;11.00;;;;;;;16.04;70.66;102645.19;5044776;28;20032;-61
2022/08/09 05:04:16;;;;;;;21.67;10.90;;;;;;;16.04;71.40;102647.81;5047632;28;20033;-61
2022/08/09 05:06:41;;;;;;;21.13;10.50;;;;;;;16.06;71.46;102659.28;5044932;28;20028;-61
2022/08/09 05:09:07;;;;;;;18.85;10.32;;;;;;;16.07;71.49;102653.16;5049020;28;20024;-62
2022/08/09 05:11:32;;;;;;;21.15;10.90;;;;;;;16.06;72.09;102656.66;5040324;28;20370;-61
2022/08/09 05:13:59;;;;;;;21.65;10.50;;;;;;;16.04;72.33;102662.72;5034973;28;20020;-62
2022/08/09 05:16:25;;;;;;;25.45;11.82;;;;;;;16.02;73.23;102661.75;5047896;28;20040;-62
2022/08/09 05:18:50;;;;;;;22.98;11.63;;;;;;;16.01;73.11;102666.13;5048849;28;20174;-61
2022/08/09 05:21:16;;;;;;;23.92;11.82;;;;;;;16.02;73.76;102662.66;5047958;28;20025;-62
2022/08/09 05:23:41;;;;;;;23.05;11.70;;;;;;;16.03;73.36;102660.91;5050480;28;20028;-61
2022/08/09 05:26:07;;;;;;;23.73;12.48;;;;;;;16.03;73.89;102658.28;5042236;28;20060;-61
2022/08/09 05:28:32;;;;;;;23.00;12.23;;;;;;;16.03;73.97;102656.53;5037812;28;20116;-61
2022/08/09 05:30:57;;;;;;;23.08;11.70;;;;;;;16.05;73.44;102667.09;5042738;28;20447;-61
2022/08/09 05:33:22;;;;;;;24.52;12.38;;;;;;;16.05;73.51;102662.75;5045104;28;20033;-60
2022/08/09 05:35:48;;;;;;;24.17;11.60;;;;;;;16.06;73.32;102658.38;5048740;28;20036;-61
2022/08/09 05:38:13;;;;;;;23.73;11.95;;;;;;;16.06;73.98;102654.03;5044689;28;20033;-60
2022/08/09 05:40:39;;;;;;;24.23;12.23;;;;;;;16.06;74.78;102663.63;5046070;28;20044;-61
2022/08/09 05:43:06;;;;;;;28.10;12.25;;;;;;;16.07;75.15;102663.69;5046403;28;20192;-61
2022/08/09 05:45:31;;;;;;;24.38;11.77;;;;;;;16.09;74.81;102666.34;5043649;28;20024;-61
2022/08/09 05:47:56;;;;;;;26.05;12.20;;;;;;;16.11;75.12;102662.94;5046532;28;20047;-61
2022/08/09 05:50:24;;;;;;;25.63;12.73;;;;;;;16.11;76.04;102667.31;5042318;28;20507;-61
2022/08/09 05:52:50;;;;;;;27.33;12.20;;;;;;;16.12;75.68;102669.97;5038995;28;20033;-61
2022/08/09 05:55:15;;;;;;;27.45;12.93;;;;;;;16.13;74.89;102669.16;5045004;28;20024;-61
2022/08/09 05:57:40;;;;;;;25.80;12.90;;;;;;;16.15;75.92;102671.81;5020271;28;20028;-61
2022/08/09 06:00:06;;;;;;;24.95;12.10;;;;;;;16.15;76.15;102677.97;5047879;28;20040;-61
2022/08/09 06:02:32;;;;;;;30.95;13.13;;;;;;;16.19;76.06;102680.69;5046490;28;20017;-61
2022/08/09 06:04:58;;;;;;;25.27;12.82;;;;;;;16.21;76.89;102676.38;5043148;28;20040;-61
2022/08/09 06:07:23;;;;;;;29.27;13.50;;;;;;;16.20;76.79;102683.34;5046463;28;20049;-61
2022/08/09 06:09:49;;;;;;;27.92;13.32;;;;;;;16.24;76.92;102687.88;5042006;28;20032;-61
2022/08/09 06:12:14;;;;;;;29.95;13.00;;;;;;;16.27;75.35;102685.31;5048541;28;20154;-62
2022/08/09 06:14:39;;;;;;;32.63;13.90;;;;;;;16.30;76.08;102687.16;5046812;28;20140;-62
2022/08/09 06:17:05;;;;;;;29.38;13.77;;;;;;;16.34;76.87;102686.41;5038618;28;20493;-62
2022/08/09 06:19:30;;;;;;;30.52;13.90;;;;;;;16.37;76.66;102696.13;5043530;28;20044;-62
2022/08/09 06:21:55;;;;;;;34.15;14.98;;;;;;;16.39;77.24;102690.03;5044887;28;20369;-62
2022/08/09 06:24:20;;;;;;;39.35;15.80;;;;;;;16.43;77.19;102691.03;5043739;28;20395;-61
2022/08/09 06:26:46;;;;;;;32.40;14.43;;;;;;;16.47;77.16;102696.44;5048447;28;20502;-61
2022/08/09 06:29:11;;;;;;;35.15;14.95;;;;;;;16.49;77.29;102697.34;5045249;28;20039;-60
2022/08/09 06:31:37;;;;;;;34.22;15.20;;;;;;;16.53;76.59;102703.63;5048873;28;20025;-60
2022/08/09 06:34:03;;;;;;;38.47;15.85;;;;;;;16.56;76.45;102701.06;5041028;28;20075;-61
2022/08/09 06:36:29;;;;;;;36.78;15.80;;;;;;;16.61;76.96;102695.94;5038245;28;20040;-61
2022/08/09 06:38:54;;;;;;;38.55;15.82;;;;;;;16.64;77.74;102696.91;5040143;28;20028;-61
2022/08/09 06:41:20;;;;;;;39.15;15.98;;;;;;;16.70;77.18;102696.19;5047475;28;20095;-61
2022/08/09 06:43:46;;;;;;;37.53;14.73;;;;;;;16.75;76.01;102698.97;5043604;28;20110;-61
2022/08/09 06:46:12;;;;;;;38.90;15.65;;;;;;;16.81;76.58;102704.38;5043663;28;20484;-61
2022/08/09 06:48:39;;;;;;;39.17;16.30;;;;;;;16.86;76.86;102697.53;5029940;28;20028;-61
2022/08/09 06:51:05;;;;;;;42.33;16.15;;;;;;;16.91;75.81;102690.66;5047713;28;20082;-61
2022/08/09 06:53:30;;;;;;;39.67;16.63;;;;;;;16.97;77.13;102689.94;5043375;28;20034;-61
2022/08/09 06:55:58;;;;;;;40.40;15.95;;;;;;;17.03;76.28;102695.34;5042664;28;20431;-61
2022/08/09 06:58:23;;;;;;;44.63;17.83;;;;;;;17.11;76.22;102692.94;5046688;28;20060;-61
2022/08/09 07:00:48;;;;;;;40.88;15.98;;;;;;;17.17;76.02;102696.59;5043584;28;20573;-62
2022/08/09 07:03:13;;;;;;;35.75;14.98;;;;;;;17.24;75.88;102700.31;5041948;28;20024;-62
2022/08/09 07:05:39;;;;;;;39.03;15.38;;;;;;;17.32;76.06;102703.13;5043923;28;20029;-62
2022/08/09 07:08:04;;;;;;;35.95;15.20;;;;;;;17.39;76.83;102699.78;5043779;28;20758;-61
2022/08/09 07:10:31;;;;;;;33.10;14.52;;;;;;;17.45;76.27;102702.59;5039081;28;20027;-61
2022/08/09 07:12:56;;;;;;;29.15;13.55;;;;;;;17.52;75.97;102703.63;5052028;28;20527;-61
2022/08/09 07:15:21;;;;;;;32.80;14.35;;;;;;;17.57;75.17;102704.66;5043150;28;20036;-62
2022/08/09 07:17:47;;;;;;;30.00;13.80;;;;;;;17.64;74.93;102713.56;5046080;28;20044;-61
2022/08/09 07:20:13;;;;;;;28.70;12.82;;;;;;;17.71;75.45;102708.50;5047045;28;20033;-62
2022/08/09 07:22:38;;;;;;;30.70;13.02;;;;;;;17.76;74.80;102710.38;5043712;28;20078;-61
2022/08/09 07:25:04;;;;;;;24.95;12.48;;;;;;;17.85;75.40;102713.22;5045443;28;20025;-60
2022/08/09 07:27:30;;;;;;;26.50;12.75;;;;;;;17.90;75.46;102703.69;5047425;28;20032;-61
2022/08/09 07:29:55;;;;;;;21.88;11.65;;;;;;;17.96;74.96;102700.28;5050310;28;20036;-61
2022/08/09 07:32:20;;;;;;;21.85;10.52;;;;;;;18.05;75.03;102700.53;5033040;28;20103;-61
2022/08/09 07:34:46;;;;;;;19.95;11.40;;;;;;;18.12;74.62;102706.81;5051782;28;20032;-61
2022/08/09 07:37:12;;;;;;;18.85;10.15;;;;;;;18.17;75.07;102708.69;5051172;28;20431;-61
2022/08/09 07:39:37;;;;;;;17.13;10.68;;;;;;;18.24;74.80;102704.44;5049233;28;20025;-62
2022/08/09 07:42:03;;;;;;;17.45;10.15;;;;;;;18.31;74.90;102716.03;5046060;28;20107;-61
2022/08/09 07:44:29;;;;;;;18.08;10.60;;;;;;;18.36;74.48;102711.72;5048155;28;20120;-61
2022/08/09 07:46:54;;;;;;;17.85;9.88;;;;;;;18.45;75.30;102706.66;5052260;28;20024;-62
2022/08/09 07:49:19;;;;;;;14.05;9.20;;;;;;;18.53;75.67;102710.34;5041479;28;20033;-61
2022/08/09 07:51:45;;;;;;;13.27;8.23;;;;;;;18.60;74.40;102711.34;5051199;28;20036;-61
2022/08/09 07:54:10;;;;;;;14.00;7.75;;;;;;;18.70;74.72;102717.72;5048105;28;20029;-61
2022/08/09 07:56:37;;;;;;;12.60;8.13;;;;;;;18.75;74.28;102713.41;5052085;28;20036;-60
2022/08/09 07:59:02;;;;;;;13.60;8.88;;;;;;;18.82;74.62;102704.75;5045795;28;20037;-59
2022/08/09 08:01:27;;;;;;;14.45;8.40;;;;;;;18.89;73.29;102711.97;5042193;28;20025;-60
2022/08/09 08:03:53;;;;;;;13.75;8.07;;;;;;;18.98;74.33;102713.88;5038811;28;20025;-60
2022/08/09 08:06:18;;;;;;;12.07;7.65;;;;;;;19.05;74.37;102717.53;5043612;28;20107;-60
2022/08/09 08:08:43;;;;;;;12.23;7.40;;;;;;;19.13;73.92;102717.66;5040804;28;20021;-59
2022/08/09 08:11:08;;;;;;;11.45;7.88;;;;;;;19.21;74.20;102724.00;5039307;28;20033;-60
2022/08/09 08:13:34;;;;;;;11.45;7.65;;;;;;;19.29;72.92;102720.63;5043010;28;20657;-59
2022/08/09 08:15:59;;;;;;;13.38;8.27;;;;;;;19.39;73.23;102718.13;5050584;28;20033;-60
2022/08/09 08:18:24;;;;;;;11.80;7.40;;;;;;;19.49;72.40;102708.59;5032758;28;20683;-60
2022/08/09 08:20:50;;;;;;;10.70;7.43;;;;;;;19.55;72.12;102709.59;5051732;28;20024;-61
2022/08/09 08:23:17;;;;;;;11.00;6.95;;;;;;;19.63;72.13;102715.88;5050619;28;20017;-60
2022/08/09 08:25:44;;;;;;;8.75;6.95;;;;;;;19.71;71.73;102705.44;5051574;28;20490;-59
2022/08/09 08:28:09;;;;;;;11.23;6.50;;;;;;;19.81;71.52;102711.78;5049248;28;20050;-61
2022/08/09 08:30:35;;;;;;;11.60;6.90;;;;;;;19.90;70.68;102709.28;5051315;28;20032;-61
2022/08/09 08:33:00;;;;;;;11.40;7.50;;;;;;;19.95;70.33;102709.34;5044566;28;20029;-61
2022/08/09 08:35:25;;;;;;;10.55;6.97;;;;;;;20.04;69.71;102709.47;5041420;28;20111;-60
2022/08/09 08:37:51;;;;;;;10.95;6.93;;;;;;;20.08;69.98;102713.94;5048232;28;20025;-61
2022/08/09 08:40:17;;;;;;;9.68;6.13;;;;;;;20.22;70.22;102719.44;5046244;28;20044;-61
2022/08/09 08:42:42;;;;;;;8.10;5.53;;;;;;;20.36;68.46;102708.13;5036890;28;20016;-61
2022/08/09 08:45:10;;;;;;;7.68;5.32;;;;;;;20.40;67.72;102720.53;5032669;28;20396;-64
2022/08/09 08:47:36;;;;;;;8.43;5.53;;;;;;;20.49;66.83;102712.69;5041184;28;20175;-62
2022/08/09 08:50:02;;;;;;;8.10;5.35;;;;;;;20.59;67.13;102717.22;5045732;28;20516;-61
2022/08/09 08:52:28;;;;;;;8.07;5.18;;;;;;;20.64;66.15;102704.94;5048191;28;20086;-62
2022/08/09 08:54:58;;;;;;;7.93;4.43;;;;;;;20.76;65.80;102712.16;5045913;28;20025;-61
2022/08/09 08:57:25;;;;;;;7.72;4.70;;;;;;;20.85;65.22;102721.97;5038348;28;20020;-62
2022/08/09 08:59:51;;;;;;;7.45;4.47;;;;;;;20.94;64.14;102716.78;5043722;28;20036;-62
2022/08/09 09:02:25;;;;;;;7.43;4.18;;;;;;;21.04;65.59;102711.56;5048004;28;20041;-61
2022/08/09 09:04:56;;;;;;;5.10;3.70;;;;;;;21.19;65.73;102719.69;5046240;28;20044;-60
2022/08/09 09:07:23;;;;;;;7.30;3.80;;;;;;;21.29;64.36;102723.28;5042645;28;20036;-54
2022/08/09 09:09:50;;;;;;;6.15;3.97;;;;;;;21.36;63.71;102723.38;5029901;28;20071;-58
2022/08/09 09:12:17;;;;;;;6.53;3.97;;;;;;;21.48;63.73;102725.25;5041672;28;20057;-55
2022/08/09 09:14:44;;;;;;;7.30;4.00;;;;;;;21.61;63.72;102728.91;5040078;28;20021;-59
2022/08/09 09:17:10;;;;;;;7.53;4.13;;;;;;;21.67;62.76;102725.44;5039590;28;20024;-58
2022/08/09 09:19:35;;;;;;;7.43;3.75;;;;;;;21.75;61.15;102729.00;5039161;28;20086;-57
2022/08/09 09:22:10;;;;;;;6.80;3.10;;;;;;;21.87;62.08;102734.41;5037885;28;21666;-59
2022/08/09 09:24:53;;;;;;;6.07;3.53;;;;;;;22.00;62.29;102730.06;5036712;28;20476;-58
2022/08/09 09:27:25;;;;;;;6.25;3.25;;;;;;;22.09;59.40;102734.53;5040792;28;20029;-58
2022/08/09 09:29:52;;;;;;;5.60;3.47;;;;;;;22.19;59.91;102735.50;5040402;28;20025;-57
2022/08/09 09:32:19;;;;;;;5.13;3.17;;;;;;;22.26;59.61;102734.66;5038676;28;20104;-55
2022/08/09 09:35:02;;;;;;;5.95;3.25;;;;;;;22.34;60.01;102724.97;5036539;28;20036;-57
2022/08/09 09:37:28;;;;;;;5.47;2.88;;;;;;;22.47;59.55;102731.22;5036083;28;20021;-63
2022/08/09 09:39:54;;;;;;;8.65;2.92;;;;;;;22.61;59.15;102738.34;5040743;28;20110;-62
2022/08/09 09:42:25;;;;;;;6.30;3.05;;;;;;;22.72;59.85;102729.56;5039623;28;20792;-63
2022/08/09 09:44:58;;;;;;;5.88;3.10;;;;;;;22.82;58.13;102721.59;5036296;28;20683;-67
2022/08/09 09:47:25;;;;;;;5.00;2.70;;;;;;;22.89;58.77;102715.41;5033611;28;20111;-63
2022/08/09 09:49:52;;;;;;;5.47;2.95;;;;;;;23.05;57.49;102718.97;5036044;28;20025;-65
2022/08/09 09:52:17;;;;;;;4.45;2.20;;;;;;;23.07;53.52;102712.78;5037355;28;20032;-65
2022/08/09 09:54:46;;;;;;;5.07;2.00;;;;;;;23.15;53.35;102722.56;5036032;28;20033;-60
2022/08/09 09:57:19;;;;;;;3.15;1.90;;;;;;;23.16;53.74;102713.69;5038870;28;20047;-60
2022/08/09 09:59:46;;;;;;;4.45;1.85;;;;;;;23.26;54.95;102719.03;5040260;28;20046;-59
2022/08/09 10:02:13;;;;;;;5.68;2.33;;;;;;;23.39;53.31;102717.25;5039538;28;20064;-62
2022/08/09 10:04:39;;;;;;;6.75;2.35;;;;;;;23.54;52.09;102720.81;5036293;28;20036;-60
2022/08/09 10:07:19;;;;;;;5.90;2.17;;;;;;;23.60;53.32;102723.47;5039338;28;20080;-62
2022/08/09 10:09:47;;;;;;;3.53;2.05;;;;;;;23.70;53.81;102725.22;5040503;28;20039;-60
2022/08/09 10:12:23;;;;;;;4.28;2.10;;;;;;;23.83;53.12;102725.22;5041447;28;20043;-61
2022/08/09 10:14:48;;;;;;;3.35;2.00;;;;;;;23.89;51.74;102725.22;5037112;28;20029;-59
2022/08/09 10:17:15;;;;;;;3.88;2.38;;;;;;;24.04;51.83;102725.19;5042972;28;20086;-60
2022/08/09 10:19:41;;;;;;;3.50;1.80;;;;;;;24.10;51.16;102730.50;5046078;28;20036;-60
2022/08/09 10:22:06;;;;;;;4.60;1.83;;;;;;;24.18;51.18;102717.16;5043983;28;20041;-60
2022/08/09 10:24:32;;;;;;;3.10;1.90;;;;;;;24.26;51.07;102725.09;5046585;28;20021;-60
2022/08/09 10:26:57;;;;;;;2.90;1.92;;;;;;;24.35;50.11;102717.09;5041635;28;20025;-60
2022/08/09 10:29:23;;;;;;;4.55;1.80;;;;;;;24.39;50.07;102716.19;5048161;28;20387;-60
2022/08/09 10:31:51;;;;;;;4.57;1.90;;;;;;;24.46;49.63;102717.94;5048746;28;20112;-59
2022/08/09 10:34:16;;;;;;;4.65;1.90;;;;;;;24.52;48.73;102717.03;5048214;28;20398;-60
2022/08/09 10:36:42;;;;;;;4.63;1.80;;;;;;;24.57;48.69;102709.00;5042444;28;20028;-59
2022/08/09 10:39:07;;;;;;;4.07;2.10;;;;;;;24.62;48.13;102713.44;5053510;28;20100;-59
2022/08/09 10:41:34;;;;;;;3.45;1.90;;;;;;;24.67;46.99;102710.75;5053441;28;20131;-60
2022/08/09 10:43:59;;;;;;;3.22;1.80;;;;;;;24.71;46.43;102707.19;5053547;28;20086;-60
2022/08/09 10:46:52;;;;;;;3.63;1.60;;;;;;;24.75;47.11;102692.03;5050150;28;20029;-60
2022/08/09 10:49:32;;;;;;;3.38;1.60;;;;;;;24.77;45.20;102699.13;5053479;28;20028;-60
2022/08/09 10:52:08;;;;;;;5.05;2.00;;;;;;;24.79;46.64;102700.00;5052298;28;20025;-60
2022/08/09 10:54:33;;;;;;;3.10;1.80;;;;;;;24.88;45.30;102692.84;5050055;28;20060;-60
2022/08/09 10:57:17;;;;;;;3.88;1.67;;;;;;;24.93;47.18;102688.38;5047619;28;20557;-60
2022/08/09 10:59:44;;;;;;;2.78;1.70;;;;;;;24.97;45.85;102679.47;5051464;28;20028;-60
2022/08/09 11:02:34;;;;;;;3.70;1.70;;;;;;;25.15;48.64;102694.44;5051890;28;20059;-60
2022/08/09 11:05:16;;;;;;;4.05;1.60;;;;;;;25.27;47.18;102685.44;5053128;28;20468;-60
2022/08/09 11:07:42;;;;;;;3.70;1.70;;;;;;;25.36;46.45;102684.50;5039805;28;20063;-59
2022/08/09 11:10:07;;;;;;;4.78;1.60;;;;;;;25.47;45.94;102678.16;5051948;28;20024;-59
2022/08/09 11:12:33;;;;;;;4.10;1.70;;;;;;;25.52;45.45;102684.34;5053010;28;20031;-60
2022/08/09 11:15:20;;;;;;;2.90;1.55;;;;;;;25.62;45.07;102689.59;5052874;28;20048;-60
2022/08/09 11:17:48;;;;;;;3.95;1.70;;;;;;;25.72;46.68;102693.06;5050846;28;20041;-60
2022/08/09 11:20:14;;;;;;;3.17;2.13;;;;;;;25.83;45.77;102696.50;5051887;28;20037;-60